Time;durP1;ratioP1;P1;durP2;ratioP2;P2;SDS_P1;SDS_P2;PMS_P1;PMS_P2;Temp;Humidity;BMP_temperature;BMP_pressure;BME280_temperature;BME280_humidity;BME280_pressure;Samples;Min_cycle;Max_cycle;Signal;HPM_P1;HPM_P2
2022/05/24 00:04:08;;;;;;;;;;;15.40;99.90;;;14.76;100.00;94750.69;10483426;28;2197;-73
2022/05/24 00:09:11;;;;;;;;;;;15.50;99.90;;;14.81;100.00;94752.41;10502345;28;2268;-74
2022/05/24 00:14:15;;;;;;;;;;;15.50;99.90;;;14.83;100.00;94750.19;10488790;28;2456;-74
2022/05/24 00:19:18;;;;;;;;;;;15.50;99.90;;;14.77;100.00;94741.44;10481910;28;2299;-74
2022/05/24 00:24:21;;;;;;;;;;;15.50;99.90;;;14.79;100.00;94751.94;10500246;28;2338;-74
2022/05/24 00:29:24;;;;;;;;;;;15.50;99.90;;;14.82;100.00;94737.75;10499243;28;2347;-74
2022/05/24 00:34:27;;;;;;;;;;;15.50;99.90;;;14.84;100.00;94741.72;10497873;28;2243;-74
2022/05/24 00:39:31;;;;;;;;;;;15.60;99.90;;;14.84;100.00;94733.59;10489345;28;2380;-74
2022/05/24 00:44:34;;;;;;;;;;;15.60;99.90;;;14.84;100.00;94738.22;10493291;28;2386;-74
2022/05/24 00:49:37;;;;;;;;;;;15.60;99.90;;;14.79;100.00;94739.19;10479524;28;2378;-75
2022/05/24 00:54:41;;;;;;;;;;;15.60;99.90;;;14.84;100.00;94749.06;10499917;28;2387;-75
2022/05/24 00:59:45;;;;;;;;;;;15.60;99.90;;;14.81;100.00;94744.28;10494466;28;2324;-74
2022/05/24 01:04:48;;;;;;;;;;;15.50;99.90;;;14.81;100.00;94745.06;10486927;28;2363;-75
2022/05/24 01:09:52;;;;;;;;;;;15.50;99.90;;;14.80;100.00;94748.91;10500990;28;2216;-75
2022/05/24 01:14:55;;;;;;;;;;;15.40;99.90;;;14.76;100.00;94747.16;10509709;28;2338;-75
2022/05/24 01:19:59;;;;;;;;;;;15.50;99.90;;;14.71;100.00;94741.94;10487312;28;2283;-75
2022/05/24 01:25:02;;;;;;;;;;;15.40;99.90;;;14.63;100.00;94740.06;10494658;28;2346;-75
2022/05/24 01:30:06;;;;;;;;;;;15.40;99.90;;;14.62;100.00;94739.25;10490244;28;2723;-75
2022/05/24 01:40:30;;;;;;;;;;;15.30;99.90;;;14.58;100.00;94732.94;10482999;28;2397;-74
2022/05/24 01:45:33;;;;;;;;;;;15.30;99.90;;;14.55;100.00;94728.94;10533053;28;2475;-74
2022/05/24 01:50:36;;;;;;;;;;;15.20;99.90;;;14.58;100.00;94725.59;10515131;28;2254;-74
2022/05/24 01:55:39;;;;;;;;;;;15.20;99.90;;;14.54;100.00;94723.88;10497700;28;2309;-75
2022/05/24 02:00:43;;;;;;;;;;;15.30;99.90;;;14.53;100.00;94722.28;10513328;28;2352;-74
2022/05/24 02:05:46;;;;;;;;;;;15.20;99.90;;;14.56;100.00;94724.31;10502132;28;2263;-74
2022/05/24 02:10:49;;;;;;;;;;;15.20;99.90;;;14.51;100.00;94725.31;10486992;28;2346;-74
2022/05/24 02:15:53;;;;;;;;;;;15.20;99.90;;;14.55;100.00;94715.41;10515606;28;2476;-75
2022/05/24 02:20:56;;;;;;;;;;;15.30;99.90;;;14.54;100.00;94704.94;10496871;28;2330;-76
2022/05/24 02:26:00;;;;;;;;;;;15.20;99.90;;;14.56;100.00;94711.59;10493379;28;2387;-75
2022/05/24 02:31:04;;;;;;;;;;;15.30;99.90;;;14.55;100.00;94701.09;10498585;28;2091;-75
2022/05/24 02:36:08;;;;;;;;;;;15.30;99.90;;;14.55;100.00;94693.00;10492962;28;2772;-74
2022/05/24 02:41:29;;;;;;;;;;;15.30;99.90;;;14.48;100.00;94681.91;10511669;28;2373;-75
2022/05/24 02:46:32;;;;;;;;;;;15.20;99.90;;;14.52;100.00;94697.16;10498280;28;2338;-75
2022/05/24 02:51:37;;;;;;;;;;;15.30;99.90;;;14.50;100.00;94691.25;10499924;28;2534;-75
2022/05/24 02:56:43;;;;;;;;;;;15.30;99.90;;;14.48;100.00;94688.09;10487133;28;2319;-75
2022/05/24 03:01:46;;;;;;;;;;;15.20;99.90;;;14.47;100.00;94689.22;10492370;28;2307;-74
2022/05/24 03:17:31;;;;;;;;;;;15.20;99.90;;;14.49;100.00;94681.56;10510885;28;2354;-74
2022/05/24 03:22:34;;;;;;;;;;;15.20;99.90;;;14.49;100.00;94686.19;10489395;28;2354;-74
2022/05/24 03:27:37;;;;;;;;;;;15.30;99.90;;;14.51;100.00;94692.88;10498458;28;2510;-74
2022/05/24 03:32:41;;;;;;;;;;;15.30;99.90;;;14.52;100.00;94688.25;10502859;28;2339;-73
2022/05/24 03:37:44;;;;;;;;;;;15.30;99.90;;;14.55;100.00;94685.69;10511808;28;2417;-73
2022/05/24 03:42:51;;;;;;;;;;;15.30;99.90;;;14.58;100.00;94690.44;10512313;28;2423;-74
2022/05/24 03:47:55;;;;;;;;;;;15.30;99.90;;;14.63;100.00;94685.97;10516229;28;2445;-74
2022/05/24 03:52:59;;;;;;;;;;;15.40;99.90;;;14.66;100.00;94675.28;10486671;28;2463;-74
2022/05/24 03:58:02;;;;;;;;;;;15.40;99.90;;;14.69;100.00;94684.66;10510726;28;2790;-75
2022/05/24 04:03:07;;;;;;;;;;;15.50;99.90;;;14.73;100.00;94682.91;10487662;28;2509;-73
2022/05/24 04:08:18;;;;;;;;;;;15.50;99.90;;;14.77;100.00;94687.34;10493314;28;2264;-73
2022/05/24 04:13:21;;;;;;;;;;;15.50;99.90;;;14.81;100.00;94687.47;10509066;28;2315;-73
2022/05/24 04:18:44;;;;;;;;;;;15.50;99.90;;;14.81;100.00;94693.66;10503639;28;2252;-73
2022/05/24 04:24:07;;;;;;;;;;;15.60;99.90;;;14.74;100.00;94689.88;10502594;28;2366;-73
2022/05/24 04:29:30;;;;;;;;;;;15.50;99.90;;;14.69;100.00;94700.88;10506414;28;2283;-74
2022/05/24 04:34:53;;;;;;;;;;;15.50;99.90;;;14.62;100.00;94695.97;10514940;28;2298;-74
2022/05/24 04:40:16;;;;;;;;;;;15.50;99.90;;;14.58;100.00;94701.25;10506071;28;2358;-75
2022/05/24 04:45:39;;;;;;;;;;;15.40;99.90;;;14.53;100.00;94719.56;10512532;28;2315;-75
2022/05/24 04:51:02;;;;;;;;;;;15.30;99.90;;;14.52;100.00;94718.00;10512023;28;2178;-76
2022/05/24 04:56:05;;;;;;;;;;;15.30;99.90;;;14.52;100.00;94718.00;10505746;28;2366;-74
2022/05/24 05:01:14;;;;;;;;;;;15.30;99.90;;;14.55;100.00;94728.16;10504902;28;2373;-73
2022/05/24 05:06:18;;;;;;;;;;;15.40;99.90;;;14.50;100.00;94726.41;10481823;28;2500;-73
2022/05/24 05:11:21;;;;;;;;;;;15.30;99.90;;;14.55;100.00;94722.75;10481838;28;2350;-73
2022/05/24 05:16:24;;;;;;;;;;;15.30;99.90;;;14.54;100.00;94719.25;10507634;28;2208;-73
2022/05/24 05:21:27;;;;;;;;;;;15.30;99.90;;;14.65;100.00;94724.31;10486820;28;2310;-73
2022/05/24 05:26:31;;;;;;;;;;;15.30;99.90;;;14.72;100.00;94732.72;10472645;28;2288;-75
2022/05/24 05:31:34;;;;;;;;;;;15.40;99.90;;;14.80;100.00;94732.66;10491891;28;2202;-75
2022/05/24 05:36:37;;;;;;;;;;;15.50;99.90;;;14.93;100.00;94736.25;10482232;28;2117;-76
2022/05/24 05:41:40;;;;;;;;;;;15.60;99.90;;;14.94;100.00;94728.94;10499711;28;2195;-73
2022/05/24 05:46:43;;;;;;;;;;;15.70;99.90;;;15.04;100.00;94729.38;10501021;28;2234;-74
2022/05/24 05:51:46;;;;;;;;;;;15.60;99.90;;;15.34;100.00;94732.06;10511156;28;2254;-74
2022/05/24 05:56:49;;;;;;;;;;;15.90;99.90;;;15.64;100.00;94736.31;10492935;28;2338;-74
2022/05/24 06:01:52;;;;;;;;;;;16.10;99.90;;;15.74;100.00;94724.31;10512338;28;2195;-75
2022/05/24 06:06:56;;;;;;;;;;;16.40;99.90;;;15.69;100.00;94729.91;10511146;28;2238;-74
2022/05/24 06:12:00;;;;;;;;;;;16.30;99.90;;;15.70;100.00;94744.25;10484790;28;2320;-74
2022/05/24 06:17:02;;;;;;;;;;;16.40;99.90;;;15.70;100.00;94746.97;10494519;28;2446;-75
2022/05/24 06:22:06;;;;;;;;;;;16.50;99.90;;;15.80;100.00;94752.00;10489196;28;2216;-74
2022/05/24 06:27:09;;;;;;;;;;;16.40;99.90;;;15.87;100.00;94766.59;10482136;28;2506;-74
2022/05/24 06:32:12;;;;;;;;;;;16.50;99.90;;;15.65;100.00;94767.72;10509067;28;2208;-74
2022/05/24 06:37:15;;;;;;;;;;;16.50;99.90;;;15.55;100.00;94768.06;10488218;28;2334;-74
2022/05/24 06:42:18;;;;;;;;;;;16.30;99.90;;;15.50;100.00;94770.97;10511264;28;2354;-74
2022/05/24 06:47:21;;;;;;;;;;;16.40;99.90;;;15.38;100.00;94771.69;10490732;28;2387;-75
2022/05/24 06:52:24;;;;;;;;;;;16.30;99.90;;;15.20;100.00;94782.94;10487772;28;2188;-75
2022/05/24 06:57:28;;;;;;;;;;;16.00;99.90;;;15.13;100.00;94791.56;10495993;28;2393;-75
2022/05/24 07:02:31;;;;;;;;;;;16.00;99.90;;;15.20;100.00;94804.59;10499040;28;2336;-75
2022/05/24 07:07:34;;;;;;;;;;;15.90;99.90;;;15.31;100.00;94819.34;10513104;28;2254;-75
2022/05/24 07:12:37;;;;;;;;;;;15.90;99.90;;;15.33;100.00;94822.50;10514166;28;2282;-75
2022/05/24 07:17:40;;;;;;;;;;;16.00;99.90;;;15.27;100.00;94807.56;10518901;28;2207;-75
2022/05/24 07:22:44;;;;;;;;;;;16.00;99.90;;;15.26;100.00;94824.94;10509581;28;2265;-74
2022/05/24 07:27:47;;;;;;;;;;;15.90;99.90;;;15.23;100.00;94828.31;10496360;28;2484;-76
2022/05/24 07:32:50;;;;;;;;;;;15.90;99.90;;;15.14;100.00;94839.97;10506987;28;2267;-76
2022/05/24 07:37:53;;;;;;;;;;;15.80;99.90;;;15.02;100.00;94856.09;10515849;28;2313;-75
2022/05/24 07:48:19;;;;;;;;;;;15.60;99.90;;;14.62;100.00;94873.69;10489987;28;2281;-75
2022/05/24 07:53:23;;;;;;;;;;;15.40;99.90;;;14.42;100.00;94877.81;10509499;28;2321;-75
2022/05/24 07:58:26;;;;;;;;;;;15.20;99.90;;;14.20;100.00;94895.03;10508968;28;2180;-76
2022/05/24 08:03:29;;;;;;;;;;;15.00;99.90;;;14.10;100.00;94911.53;10504422;28;2266;-77
2022/05/24 08:08:33;;;;;;;;;;;14.80;99.90;;;14.07;100.00;94919.16;10516029;28;2156;-76
2022/05/24 08:13:36;;;;;;;;;;;14.80;99.90;;;14.02;100.00;94913.91;10486780;28;2294;-77
2022/05/24 08:18:39;;;;;;;;;;;14.70;99.90;;;14.19;100.00;94925.88;10493003;28;2263;-76
2022/05/24 08:23:42;;;;;;;;;;;14.90;99.90;;;14.26;100.00;94931.59;10507527;28;2306;-77
2022/05/24 08:28:47;;;;;;;;;;;14.80;99.90;;;14.44;100.00;94943.19;10496184;28;2496;-76
2022/05/24 08:33:52;;;;;;;;;;;14.90;99.90;;;14.59;100.00;94962.47;10494702;28;2282;-76
2022/05/24 08:38:55;;;;;;;;;;;15.10;99.90;;;14.68;100.00;94959.75;10492853;28;2021;-76
2022/05/24 08:43:58;;;;;;;;;;;15.30;99.90;;;14.42;100.00;94957.03;10492987;28;2396;-76
2022/05/24 08:49:03;;;;;;;;;;;15.20;99.90;;;14.62;100.00;94942.09;10509722;28;2275;-76
2022/05/24 08:54:08;;;;;;;;;;;15.20;99.90;;;15.17;100.00;94944.09;10489498;28;2243;-76
2022/05/24 08:59:11;;;;;;;;;;;15.50;99.90;;;15.47;100.00;94950.38;10503240;28;2277;-76
2022/05/24 09:04:14;;;;;;;;;;;15.80;99.90;;;15.72;100.00;94947.94;10490879;28;2224;-75
2022/05/24 09:09:23;;;;;;;;;;;16.10;99.90;;;15.78;100.00;94941.22;10500127;28;2246;-75
2022/05/24 09:14:26;;;;;;;;;;;16.20;99.90;;;15.61;100.00;94940.13;10488084;28;2185;-75
2022/05/24 09:19:30;;;;;;;;;;;16.30;99.90;;;15.32;100.00;94934.66;10484114;28;2228;-75
2022/05/24 09:24:33;;;;;;;;;;;16.10;99.90;;;15.05;100.00;94936.63;10487213;28;2381;-75
2022/05/24 09:29:36;;;;;;;;;;;16.00;99.90;;;15.25;100.00;94928.94;10487415;28;2178;-75
2022/05/24 09:34:39;;;;;;;;;;;16.00;99.90;;;15.20;100.00;94938.03;10500453;28;2259;-75
2022/05/24 09:39:42;;;;;;;;;;;16.00;99.90;;;15.41;100.00;94940.84;10499852;28;2350;-74
2022/05/24 09:44:46;;;;;;;;;;;16.10;99.90;;;15.43;100.00;94946.72;10486617;28;2633;-74
2022/05/24 09:49:51;;;;;;;;;;;16.20;99.90;;;15.62;100.00;94966.13;10489786;28;2309;-75
2022/05/24 09:54:55;;;;;;;;;;;16.30;99.90;;;15.54;100.00;94969.63;10496234;28;2110;-75
2022/05/24 09:59:59;;;;;;;;;;;16.20;99.90;;;15.32;100.00;94976.06;10484706;28;2461;-75
2022/05/24 10:05:03;;;;;;;;;;;16.10;99.90;;;14.94;100.00;94981.38;10506727;28;2059;-74
2022/05/24 10:10:06;;;;;;;;;;;16.00;99.90;;;14.83;100.00;94985.56;10533297;28;2063;-75
2022/05/24 10:15:10;;;;;;;;;;;15.70;99.90;;;14.91;100.00;94986.66;10522688;28;1992;-74
2022/05/24 10:20:13;;;;;;;;;;;15.60;99.90;;;15.20;100.00;94994.09;10512285;28;2483;-74
2022/05/24 10:25:17;;;;;;;;;;;15.70;99.90;;;15.91;100.00;94999.81;10515660;28;2507;-77
2022/05/24 10:30:20;;;;;;;;;;;15.90;99.90;;;16.75;100.00;94984.47;10496099;28;2072;-75
2022/05/24 10:40:45;;;;;;;;;;;17.50;99.90;;;17.41;100.00;94995.34;10498314;28;2115;-75
2022/05/24 10:45:51;;;;;;;;;;;17.90;99.90;;;16.85;100.00;94996.84;10495238;28;2044;-74
2022/05/24 10:50:55;;;;;;;;;;;17.70;99.90;;;16.58;100.00;94990.78;10511789;28;1987;-75
2022/05/24 10:56:00;;;;;;;;;;;17.40;99.90;;;16.25;100.00;94998.03;10492923;28;2527;-74
2022/05/24 11:01:03;;;;;;;;;;;17.20;99.90;;;16.27;100.00;95012.03;10514373;28;1969;-75
2022/05/24 11:06:06;;;;;;;;;;;17.00;99.90;;;16.24;100.00;95008.09;10496534;28;1945;-76
2022/05/24 11:11:09;;;;;;;;;;;16.80;99.90;;;16.07;100.00;95003.53;10495793;28;2551;-75
2022/05/24 11:16:13;;;;;;;;;;;16.80;99.90;;;16.32;100.00;95017.28;10503856;28;1790;-75
2022/05/24 11:21:17;;;;;;;;;;;16.90;99.90;;;16.31;100.00;95015.69;10508102;28;2287;-75
2022/05/24 11:26:21;;;;;;;;;;;17.00;99.90;;;16.20;100.00;95013.34;10494534;28;2510;-75
2022/05/24 11:31:24;;;;;;;;;;;17.00;99.90;;;16.03;100.00;95010.75;10509704;28;1996;-75
2022/05/24 11:36:27;;;;;;;;;;;16.90;99.90;;;15.80;100.00;95021.03;10501237;28;1926;-75
2022/05/24 11:41:31;;;;;;;;;;;16.70;99.90;;;15.98;100.00;95027.19;10494353;28;1980;-75
2022/05/24 11:46:35;;;;;;;;;;;16.80;99.90;;;16.19;100.00;95028.03;10512014;28;1979;-75
2022/05/24 11:51:39;;;;;;;;;;;16.90;99.90;;;16.11;100.00;95030.81;10507791;28;2064;-75
2022/05/24 11:56:42;;;;;;;;;;;17.00;99.90;;;15.92;100.00;95032.00;10505211;28;2480;-75
2022/05/24 12:01:45;;;;;;;;;;;16.90;99.90;;;15.80;100.00;95037.31;10490362;28;2376;-76
2022/05/24 12:12:09;;;;;;;;;;;16.80;99.90;;;15.54;100.00;95040.06;10489728;28;1944;-75
2022/05/24 12:17:13;;;;;;;;;;;16.60;99.90;;;15.37;100.00;95070.69;10507488;28;2405;-75
2022/05/24 12:22:16;;;;;;;;;;;16.40;99.90;;;13.48;100.00;95096.88;10513307;28;2767;-78
2022/05/24 12:27:19;;;;;;;;;;;14.20;99.90;;;12.66;100.00;95116.03;10495472;28;2195;-78
2022/05/24 12:32:23;;;;;;;;;;;;;;;12.25;100.00;95118.75;10514674;28;2067;-78
2022/05/24 12:37:27;;;;;;;;;;;;;;;12.38;100.00;95139.53;10488346;28;2048;-77
2022/05/24 12:42:31;;;;;;;;;;;;;;;12.12;100.00;95125.75;10495671;28;2080;-78
2022/05/24 12:47:34;;;;;;;;;;;;;;;12.31;100.00;95123.75;10486498;28;1986;-77
2022/05/24 12:52:38;;;;;;;;;;;;;;;13.11;100.00;95129.63;10504625;28;2384;-76
2022/05/24 12:57:42;;;;;;;;;;;;;;;13.48;100.00;95112.28;10504736;28;2059;-76
2022/05/24 13:02:46;;;;;;;;;;;;;;;14.20;100.00;95100.44;10504659;28;2227;-76
2022/05/24 13:07:49;;;;;;;;;;;14.20;99.90;;;15.12;100.00;95093.94;10485897;28;2381;-76
2022/05/24 13:12:52;;;;;;;;;;;15.00;99.90;;;15.72;100.00;95099.66;10507295;28;2198;-74
2022/05/24 13:17:56;;;;;;;;;;;15.70;99.90;;;15.58;100.00;95102.50;10484670;28;2296;-75
2022/05/24 13:22:59;;;;;;;;;;;15.90;99.90;;;15.12;100.00;95131.84;10491685;28;2137;-75
2022/05/24 13:28:03;;;;;;;;;;;15.80;99.90;;;14.53;100.00;95126.00;10506748;28;2272;-75
2022/05/24 13:38:30;;;;;;;;;;;15.10;99.90;;;13.90;100.00;95102.84;10485943;28;2219;-75
2022/05/24 13:43:33;;;;;;;;;;;14.80;99.90;;;14.17;100.00;95112.66;10503460;28;2196;-76
2022/05/24 13:48:36;;;;;;;;;;;14.80;99.90;;;14.56;100.00;95125.38;10485213;28;2195;-75
2022/05/24 13:53:39;;;;;;;;;;;15.10;99.90;;;14.49;100.00;95114.22;10506523;28;2167;-76
2022/05/24 13:58:46;;;;;;;;;;;15.20;99.90;;;14.85;100.00;95111.28;10509978;28;2302;-74
2022/05/24 14:03:49;;;;;;;;;;;15.40;99.90;;;15.30;100.00;95108.28;10484574;28;2247;-75
2022/05/24 14:08:52;;;;;;;;;;;15.80;99.90;;;15.94;100.00;95104.84;10505806;28;2259;-74
2022/05/24 14:13:55;;;;;;;;;;;16.00;99.90;;;16.63;100.00;95107.28;10498436;28;2242;-75
2022/05/24 14:18:59;;;;;;;;;;;16.70;99.90;;;16.98;99.44;95109.78;10502373;28;2404;-75
2022/05/24 14:24:03;;;;;;;;;;;17.20;99.90;;;16.96;100.00;95114.75;10510110;28;2080;-74
2022/05/24 14:29:07;;;;;;;;;;;17.40;99.90;;;16.53;93.67;95113.06;10497469;28;2369;-74
2022/05/24 14:34:11;;;;;;;;;;;17.30;99.90;;;16.61;99.41;95125.81;10503348;28;2227;-74
2022/05/24 14:39:14;;;;;;;;;;;17.20;99.90;;;15.65;100.00;95119.91;10510972;28;2195;-74
2022/05/24 14:44:17;;;;;;;;;;;16.70;99.90;;;15.22;100.00;95119.13;10477741;28;2198;-75
2022/05/24 14:49:22;;;;;;;;;;;16.30;99.90;;;15.01;100.00;95124.34;10500749;28;2369;-75
2022/05/24 14:54:25;;;;;;;;;;;16.10;99.90;;;14.92;100.00;95115.44;10492077;28;2248;-74
2022/05/24 14:59:29;;;;;;;;;;;15.80;99.90;;;14.54;100.00;95111.38;10515320;28;2559;-75
2022/05/24 15:04:34;;;;;;;;;;;15.60;99.90;;;14.46;100.00;95120.28;10495664;28;2199;-74
2022/05/24 15:20:19;;;;;;;;;;;15.50;99.90;;;14.80;100.00;95129.56;10483408;28;2331;-74
2022/05/24 15:25:22;;;;;;;;;;;15.50;99.90;;;14.83;100.00;95134.38;10499368;28;2279;-75
2022/05/24 15:30:26;;;;;;;;;;;15.70;99.90;;;14.83;100.00;95150.59;10491160;28;2271;-75
2022/05/24 15:35:30;;;;;;;;;;;15.70;99.90;;;14.94;100.00;95157.28;10490700;28;2275;-74
2022/05/24 15:40:33;;;;;;;;;;;15.80;99.90;;;14.74;100.00;95157.88;10508302;28;2255;-75
2022/05/24 15:45:38;;;;;;;;;;;15.70;99.90;;;14.87;100.00;95148.84;10494351;28;2170;-74
2022/05/24 15:50:43;;;;;;;;;;;15.70;99.90;;;14.69;100.00;95142.59;10508923;28;2295;-74
2022/05/24 15:55:46;;;;;;;;;;;15.70;99.90;;;14.85;100.00;95138.34;10487072;28;2351;-73
2022/05/24 16:00:49;;;;;;;;;;;15.70;99.90;;;14.95;100.00;95155.38;10488048;28;2232;-74
2022/05/24 16:11:22;;;;;;;;;;;15.80;99.90;;;15.02;100.00;95148.41;10490476;28;2411;-74
2022/05/24 16:16:25;;;;;;;;;;;15.80;99.90;;;14.80;100.00;95143.91;10477003;28;2415;-74
2022/05/24 16:21:29;;;;;;;;;;;15.70;99.90;;;14.72;100.00;95143.88;10475449;28;2739;-78
2022/05/24 16:26:33;;;;;;;;;;;;;;;14.49;100.00;95145.88;10506486;28;2274;-78
2022/05/24 16:31:37;;;;;;;;;;;;;;;14.13;100.00;95154.16;10509547;28;2014;-78
2022/05/24 16:36:40;;;;;;;;;;;15.20;99.90;;;14.06;100.00;95154.59;10490458;28;2379;-77
2022/05/24 16:41:44;;;;;;;;;;;15.10;99.90;;;13.87;100.00;95167.50;10508325;28;2199;-79
2022/05/24 16:46:47;;;;;;;;;;;14.90;99.90;;;13.63;100.00;95162.44;10498271;28;2327;-78
2022/05/24 16:51:53;;;;;;;;;;;14.00;99.90;;;13.52;100.00;95178.88;10505191;28;2093;-79
2022/05/24 17:02:16;;;;;;;;;;;14.60;99.90;;;13.55;100.00;95182.06;10488028;28;2128;-78
2022/05/24 17:07:20;;;;;;;;;;;14.50;99.90;;;13.56;100.00;95180.97;10489013;28;2275;-78
2022/05/24 17:12:23;;;;;;;;;;;14.50;99.90;;;13.57;100.00;95194.16;10501185;28;2190;-79
2022/05/24 17:17:26;;;;;;;;;;;14.60;99.90;;;13.43;100.00;95191.53;10485698;28;2277;-79
2022/05/24 17:22:28;;;;;;;;;;;14.50;99.90;;;13.44;100.00;95193.13;10489802;28;2111;-78
2022/05/24 17:27:31;;;;;;;;;;;14.50;99.90;;;13.42;100.00;95189.94;10509404;28;2294;-77
2022/05/24 17:32:35;;;;;;;;;;;14.40;99.90;;;13.41;100.00;95187.50;10504118;28;2142;-77
2022/05/24 17:37:39;;;;;;;;;;;14.30;99.90;;;13.38;100.00;95205.13;10490742;28;2180;-79
2022/05/24 17:42:42;;;;;;;;;;;14.00;99.90;;;13.30;100.00;95223.97;10496270;28;2322;-79
2022/05/24 17:47:45;;;;;;;;;;;14.30;99.90;;;13.23;100.00;95216.25;10492908;28;2366;-78
2022/05/24 17:52:48;;;;;;;;;;;14.20;99.90;;;13.21;100.00;95221.97;10483871;28;2068;-79
2022/05/24 17:57:52;;;;;;;;;;;14.20;99.90;;;13.09;100.00;95223.56;10507136;28;2202;-79
2022/05/24 18:02:55;;;;;;;;;;;14.10;99.90;;;13.04;100.00;95216.38;10508563;28;2269;-78
2022/05/24 18:07:58;;;;;;;;;;;14.10;99.90;;;12.99;100.00;95195.69;10488021;28;2147;-80
2022/05/24 18:13:02;;;;;;;;;;;13.90;99.90;;;12.92;100.00;95197.22;10503504;28;2311;-79
2022/05/24 18:18:05;;;;;;;;;;;13.90;99.90;;;12.88;100.00;95207.81;10485850;28;2165;-79
2022/05/24 18:23:09;;;;;;;;;;;13.90;99.90;;;12.89;100.00;95205.91;10482593;28;2214;-78
2022/05/24 18:33:33;;;;;;;;;;;13.90;99.90;;;12.87;100.00;95214.28;10542085;28;2188;-79
2022/05/24 18:38:37;;;;;;;;;;;13.70;99.90;;;12.85;100.00;95203.03;10494990;28;2298;-78
2022/05/24 18:43:41;;;;;;;;;;;13.90;99.90;;;12.85;100.00;95203.03;10512990;28;2252;-75
2022/05/24 18:48:44;;;;;;;;;;;13.80;99.90;;;12.83;100.00;95204.41;10497921;28;2215;-76
2022/05/24 18:53:47;;;;;;;;;;;13.80;99.90;;;12.87;100.00;95222.38;10489383;28;2211;-76
2022/05/24 18:58:50;;;;;;;;;;;13.80;99.90;;;12.82;100.00;95235.97;10488848;28;2187;-77
2022/05/24 19:03:54;;;;;;;;;;;13.80;99.90;;;12.86;100.00;95245.06;10507812;28;2195;-77
2022/05/24 19:08:57;;;;;;;;;;;13.80;99.90;;;12.87;100.00;95243.97;10485333;28;2326;-77
2022/05/24 19:14:00;;;;;;;;;;;13.80;99.90;;;12.90;100.00;95264.94;10499660;28;2220;-77
2022/05/24 19:19:04;;;;;;;;;;;13.80;99.90;;;12.90;100.00;95258.75;10505509;28;2386;-77
2022/05/24 19:24:08;;;;;;;;;;;13.80;99.90;;;12.90;100.00;95259.53;10488241;28;2065;-75
2022/05/24 19:29:11;;;;;;;;;;;13.80;99.90;;;12.94;100.00;95257.06;10488085;28;2326;-77
2022/05/24 19:34:14;;;;;;;;;;;13.80;99.90;;;12.94;100.00;95259.75;10507111;28;2354;-78
2022/05/24 19:44:39;;;;;;;;;;;13.90;99.90;;;12.94;100.00;95276.72;10487453;28;2288;-75
2022/05/24 19:49:43;;;;;;;;;;;13.90;99.90;;;12.94;100.00;95284.03;10504658;28;2250;-76
2022/05/24 19:54:46;;;;;;;;;;;13.90;99.90;;;12.96;100.00;95293.41;10492876;28;2050;-77
2022/05/24 19:59:49;;;;;;;;;;;13.90;99.90;;;13.00;100.00;95288.22;10490397;28;2219;-77
2022/05/24 20:04:52;;;;;;;;;;;13.80;99.90;;;12.96;100.00;95290.72;10508349;28;2338;-77
2022/05/24 20:09:55;;;;;;;;;;;13.80;99.90;;;12.95;100.00;95282.94;10517621;28;2234;-78
2022/05/24 20:14:58;;;;;;;;;;;13.80;99.90;;;12.93;100.00;95291.31;10488759;28;2140;-77
2022/05/24 20:20:04;;;;;;;;;;;13.90;99.90;;;12.95;100.00;95289.13;10505795;28;2149;-77
2022/05/24 20:25:08;;;;;;;;;;;13.80;99.90;;;12.96;100.00;95290.72;10488107;28;2326;-77
2022/05/24 20:30:11;;;;;;;;;;;13.90;99.90;;;12.94;100.00;95300.22;10495231;28;2184;-78
2022/05/24 20:35:14;;;;;;;;;;;13.90;99.90;;;12.94;100.00;95316.41;10508000;28;2240;-76
2022/05/24 20:40:17;;;;;;;;;;;13.80;99.90;;;12.89;100.00;95320.00;10487146;28;2645;-76
2022/05/24 20:45:21;;;;;;;;;;;13.90;99.90;;;12.92;100.00;95316.72;10505682;28;2389;-77
2022/05/24 20:50:24;;;;;;;;;;;13.80;99.90;;;12.90;100.00;95329.66;10482302;28;2181;-76
2022/05/24 20:55:28;;;;;;;;;;;13.80;99.90;;;12.92;100.00;95324.81;10502826;28;2242;-76
2022/05/24 21:00:31;;;;;;;;;;;13.90;99.90;;;12.98;100.00;95320.09;10481779;28;2223;-76
2022/05/24 21:05:34;;;;;;;;;;;13.80;99.90;;;12.98;100.00;95310.13;10504740;28;2215;-77
2022/05/24 21:10:37;;;;;;;;;;;13.90;99.90;;;12.95;100.00;95318.78;10489129;28;2227;-75
2022/05/24 21:15:40;;;;;;;;;;;13.90;99.90;;;12.99;100.00;95309.00;10501437;28;2219;-75
2022/05/24 21:20:43;;;;;;;;;;;13.90;99.90;;;12.89;100.00;95306.50;10509589;28;2093;-76
2022/05/24 21:31:10;;;;;;;;;;;13.60;99.90;;;12.94;100.00;95298.31;10502122;28;2218;-75
2022/05/24 21:36:12;;;;;;;;;;;13.90;99.90;;;12.96;100.00;95304.19;10502843;28;2183;-76
2022/05/24 21:41:15;;;;;;;;;;;13.80;99.90;;;12.86;100.00;95296.31;10508855;28;2007;-76
2022/05/24 21:46:18;;;;;;;;;;;13.90;99.90;;;12.87;100.00;95295.22;10509459;28;1917;-76
2022/05/24 21:51:23;;;;;;;;;;;13.80;99.90;;;12.83;100.00;95302.28;10505302;28;2175;-76
2022/05/24 21:56:26;;;;;;;;;;;13.80;99.90;;;12.80;100.00;95308.31;10479331;28;2306;-76
2022/05/24 22:01:29;;;;;;;;;;;13.80;99.90;;;12.81;100.00;95314.50;10485698;28;2207;-75
2022/05/24 22:06:32;;;;;;;;;;;13.70;99.90;;;12.86;100.00;95323.28;10509636;28;2069;-76
2022/05/24 22:11:36;;;;;;;;;;;13.70;99.90;;;12.89;100.00;95327.28;10496077;28;2155;-75
2022/05/24 22:16:39;;;;;;;;;;;13.80;99.90;;;12.85;100.00;95329.78;10497944;28;2204;-75
2022/05/24 22:21:42;;;;;;;;;;;13.80;99.90;;;12.87;100.00;95341.06;10515759;28;2269;-76
2022/05/24 22:26:45;;;;;;;;;;;13.80;99.90;;;12.90;100.00;95340.47;10498207;28;2012;-75
2022/05/24 22:31:48;;;;;;;;;;;13.80;99.90;;;12.96;100.00;95344.66;10515155;28;2191;-75
2022/05/24 22:36:51;;;;;;;;;;;13.80;99.90;;;12.91;100.00;95338.56;10523508;28;2195;-75
2022/05/24 22:41:54;;;;;;;;;;;13.80;99.90;;;12.96;100.00;95344.66;10528072;28;2332;-75
2022/05/24 22:46:57;;;;;;;;;;;13.70;99.90;;;12.92;100.00;95349.09;10512528;28;2296;-74
2022/05/24 22:52:00;;;;;;;;;;;13.80;99.90;;;13.16;100.00;95337.28;10495358;28;2271;-75
2022/05/24 22:57:04;;;;;;;;;;;13.80;99.90;;;13.07;100.00;95339.88;10511330;28;2203;-75
2022/05/24 23:02:06;;;;;;;;;;;14.00;99.90;;;12.97;100.00;95340.06;10494617;28;2271;-75
2022/05/24 23:07:09;;;;;;;;;;;13.90;99.90;;;12.85;100.00;95321.69;10491794;28;2319;-76
2022/05/24 23:12:13;;;;;;;;;;;13.80;99.90;;;12.85;100.00;95326.28;10512424;28;2345;-75
2022/05/24 23:17:16;;;;;;;;;;;13.80;99.90;;;12.83;100.00;95336.56;10498478;28;2288;-75
2022/05/24 23:22:19;;;;;;;;;;;13.70;99.90;;;12.87;100.00;95330.28;10489734;28;2143;-75
2022/05/24 23:27:22;;;;;;;;;;;13.70;99.90;;;13.03;100.00;95316.50;10512441;28;2378;-74
2022/05/24 23:32:25;;;;;;;;;;;13.80;99.90;;;12.94;100.00;95308.31;10503483;28;2282;-75
2022/05/24 23:37:27;;;;;;;;;;;13.80;99.90;;;12.75;100.00;95299.50;10491311;28;2294;-76
2022/05/24 23:42:31;;;;;;;;;;;13.70;99.90;;;12.67;100.00;95306.41;10486656;28;2088;-76
2022/05/24 23:47:34;;;;;;;;;;;13.60;99.90;;;12.75;100.00;95310.28;10511313;28;1893;-76
2022/05/24 23:52:37;;;;;;;;;;;13.60;99.90;;;12.74;100.00;95308.69;10495591;28;1972;-74
2022/05/24 23:57:40;;;;;;;;;;;13.60;99.90;;;12.65;100.00;95319.34;10505536;28;2214;-75
